Saint-Pierre, Martinique
Current Conditions -  °F | °C
As of 10:00 PM on Tuesday 21 Oct 2014 (Local Time) from TFFF Reporting Station
Few Clouds Few Clouds  
Wind Chill: 77°   Ceiling: Unl
Heat Index: 78°   Visibility: 6mi
Dew Point: 73°   Wind: 3mph
Humidity: 89%   Direction: 20°NNE
Pressure: 29.94"   Gusts: NA
Location:  14.74°N, 61.18°W
Report Text: TFFF 220200Z AUTO 02003KT 340V040 9999 FEW025 25/23 Q1014
Loading
Personal Weather Stations






























Interactive Weather Map
Tropical Storm Tracking
New forecast layout! Learn more

10-Day Weather Forecast

Advertisements
Track Severe Weather on mobile